Time;durP1;ratioP1;P1;durP2;ratioP2;P2;SDS_P1;SDS_P2;PMS_P1;PMS_P2;Temp;Humidity;BMP_temperature;BMP_pressure;BME280_temperature;BME280_humidity;BME280_pressure;Samples;Min_cycle;Max_cycle;Signal;HPM_P1;HPM_P2
2022/02/08 00:01:35;;;;;;;14.13;3.03;;;;;;;10.59;100.00;101651.63;4984198;28;20038;-83
2022/02/08 00:04:00;;;;;;;18.95;2.35;;;;;;;10.44;100.00;101627.13;4990707;28;20038;-83
2022/02/08 00:06:37;;;;;;;23.13;3.38;;;;;;;10.46;100.00;101639.41;5000769;28;20030;-84
2022/02/08 00:09:04;;;;;;;18.02;3.30;;;;;;;10.48;100.00;101632.03;4959510;28;20041;-83
2022/02/08 00:11:30;;;;;;;21.85;4.22;;;;;;;10.53;100.00;101639.63;4991495;28;20038;-83
2022/02/08 00:13:56;;;;;;;19.67;2.97;;;;;;;10.38;100.00;101635.81;4957416;28;20132;-84
2022/02/08 00:16:21;;;;;;;10.88;2.10;;;;;;;10.36;100.00;101635.94;4992371;28;20491;-83
2022/02/08 00:18:47;;;;;;;15.98;3.72;;;;;;;10.39;100.00;101632.94;4959090;28;20034;-83
2022/02/08 00:21:13;;;;;;;14.80;2.67;;;;;;;10.33;100.00;101647.00;4955097;28;20026;-83
2022/02/08 00:23:40;;;;;;;15.30;3.30;;;;;;;10.32;100.00;101637.25;4951642;28;20029;-84
2022/02/08 00:26:06;;;;;;;17.30;4.25;;;;;;;10.25;100.00;101633.44;4985976;28;20029;-83
2022/02/08 00:28:32;;;;;;;27.10;4.18;;;;;;;10.36;100.00;101648.53;4987797;28;20181;-83
2022/02/08 00:30:57;;;;;;;17.75;2.75;;;;;;;10.29;100.00;101637.53;4971058;28;20037;-85
2022/02/08 00:33:23;;;;;;;23.80;4.15;;;;;;;10.32;100.00;101650.69;4990419;28;20121;-84
2022/02/08 00:35:48;;;;;;;22.83;3.75;;;;;;;10.45;100.00;101648.47;4986462;28;20380;-83
2022/02/08 00:38:14;;;;;;;20.65;3.72;;;;;;;10.32;100.00;101626.50;4954466;28;20435;-82
2022/02/08 00:40:40;;;;;;;33.58;4.05;;;;;;;10.38;100.00;101635.81;4990515;28;20037;-84
2022/02/08 00:43:09;;;;;;;19.17;4.07;;;;;;;10.29;100.00;101613.34;4958464;28;20026;-82
2022/02/08 00:48:14;;;;;;;21.98;3.38;;;;;;;10.40;100.00;101649.91;4973278;28;20042;-83
2022/02/08 00:50:41;;;;;;;29.38;4.22;;;;;;;10.40;100.00;101653.47;4969075;28;20049;-85
2022/02/08 00:53:06;;;;;;;18.98;4.00;;;;;;;10.33;100.00;101639.78;4989290;28;20076;-82
2022/02/08 00:55:32;;;;;;;15.73;3.13;;;;;;;10.40;100.00;101634.66;4955318;28;20140;-82
2022/02/08 00:57:58;;;;;;;26.83;3.55;;;;;;;10.22;100.00;101613.09;4960776;28;20046;-85
2022/02/08 01:00:45;;;;;;;21.88;3.83;;;;;;;10.34;100.00;101622.63;4957505;28;20037;-84
2022/02/08 01:03:18;;;;;;;16.38;2.95;;;;;;;10.36;100.00;101638.63;4988884;28;20038;-86
2022/02/08 01:05:49;;;;;;;22.63;4.68;;;;;;;10.31;100.00;101608.66;5001915;28;20030;-83
2022/02/08 01:08:15;;;;;;;16.92;2.38;;;;;;;10.41;100.00;101635.50;4972382;28;20045;-84
2022/02/08 01:10:41;;;;;;;22.02;3.55;;;;;;;10.43;100.00;101636.19;4957973;28;20042;-82
2022/02/08 01:13:08;;;;;;;17.33;3.75;;;;;;;10.24;100.00;101612.94;4975363;28;20046;-82
2022/02/08 01:15:35;;;;;;;13.25;3.00;;;;;;;10.29;100.00;101630.34;4988325;28;20709;-84
2022/02/08 01:18:02;;;;;;;20.38;4.55;;;;;;;10.26;100.00;101610.94;4990701;28;20030;-84
2022/02/08 01:20:36;;;;;;;24.95;3.72;;;;;;;10.30;100.00;101623.13;4986740;28;20120;-84
2022/02/08 01:23:06;;;;;;;27.70;4.68;;;;;;;10.32;100.00;101624.66;4983176;28;20088;-82
2022/02/08 01:25:39;;;;;;;19.65;3.42;;;;;;;10.24;100.00;101613.81;4967315;28;20096;-84
2022/02/08 01:28:33;;;;;;;21.07;3.90;;;;;;;10.31;100.00;101633.69;4959530;28;20049;-82
2022/02/08 01:33:38;;;;;;;23.35;3.38;;;;;;;10.30;100.00;101623.13;4991267;28;20133;-82
2022/02/08 01:38:56;;;;;;;18.38;4.03;;;;;;;10.42;100.00;101605.75;4980025;28;20554;-82
2022/02/08 01:41:41;;;;;;;22.67;4.10;;;;;;;10.45;100.00;101610.84;4984552;28;20048;-83
2022/02/08 01:44:24;;;;;;;36.50;5.53;;;;;;;10.48;100.00;101613.22;4970687;28;20453;-84
2022/02/08 01:49:43;;;;;;;33.50;4.85;;;;;;;10.39;100.00;101614.13;4990679;28;20038;-85
2022/02/08 01:52:03;;;;;;;34.08;5.00;;;;;;;10.38;100.00;101601.69;5006902;28;20217;-83
2022/02/08 01:54:28;;;;;;;38.25;5.32;;;;;;;10.34;100.00;101587.69;4967735;28;20030;-82
2022/02/08 01:56:54;;;;;;;32.80;4.40;;;;;;;10.21;100.00;101603.31;5002958;28;20033;-84
2022/02/08 01:59:23;;;;;;;16.25;3.70;;;;;;;10.17;100.00;101588.53;4989682;28;20049;-86
2022/02/08 02:01:51;;;;;;;25.35;3.90;;;;;;;10.17;100.00;101603.81;4956673;28;20554;-82
2022/02/08 02:04:17;;;;;;;32.63;4.68;;;;;;;10.18;100.00;101603.63;4988384;28;20425;-82
2022/02/08 02:06:42;;;;;;;23.42;4.57;;;;;;;10.29;100.00;101613.34;4986184;28;20153;-86
2022/02/08 02:09:08;;;;;;;27.08;4.75;;;;;;;10.24;100.00;101613.81;4954730;28;20401;-83
2022/02/08 02:11:34;;;;;;;18.40;4.07;;;;;;;10.21;100.00;101607.88;4990698;28;20033;-84
2022/02/08 02:14:01;;;;;;;20.13;4.00;;;;;;;10.12;100.00;101604.25;4975006;28;20030;-85
2022/02/08 02:16:48;;;;;;;34.08;4.70;;;;;;;10.17;100.00;101606.50;4975019;28;20129;-83
2022/02/08 02:19:16;;;;;;;29.83;5.85;;;;;;;10.10;100.00;101600.88;4962983;28;20124;-82
2022/02/08 02:21:42;;;;;;;18.48;3.10;;;;;;;9.92;100.00;101582.03;4966386;28;20091;-84
2022/02/08 02:24:08;;;;;;;14.52;3.88;;;;;;;9.81;100.00;101560.75;4976525;28;20046;-83
2022/02/08 02:26:34;;;;;;;15.15;2.22;;;;;;;10.08;100.00;101608.22;4990891;28;20484;-85
2022/02/08 02:28:59;;;;;;;9.30;2.90;;;;;;;9.95;100.00;101597.88;4968096;28;20457;-84
2022/02/08 02:31:25;;;;;;;13.32;3.78;;;;;;;10.00;100.00;101614.38;4991822;28;20101;-83
2022/02/08 02:33:50;;;;;;;17.88;2.97;;;;;;;9.95;100.00;101600.56;4990895;28;20034;-83
2022/02/08 02:36:16;;;;;;;5.10;1.67;;;;;;;9.98;100.00;101613.69;4964467;28;20030;-83
2022/02/08 02:38:42;;;;;;;3.97;1.90;;;;;;;9.97;100.00;101611.97;4995600;28;20034;-83
2022/02/08 02:41:07;;;;;;;7.85;1.98;;;;;;;9.82;100.00;101590.16;4993273;28;20037;-84
2022/02/08 02:43:33;;;;;;;1.45;0.88;;;;;;;9.97;100.00;101628.09;4960452;28;20022;-84
2022/02/08 02:46:01;;;;;;;1.15;1.00;;;;;;;9.95;100.00;101613.13;4990384;28;20372;-84
2022/02/08 02:48:27;;;;;;;3.83;1.05;;;;;;;9.90;100.00;101611.75;4956818;28;20056;-83
2022/02/08 02:50:54;;;;;;;1.13;1.05;;;;;;;9.98;100.00;101615.53;4971573;28;20468;-83
2022/02/08 02:53:20;;;;;;;4.18;1.10;;;;;;;10.00;100.00;101621.59;5002773;28;20497;-84
2022/02/08 02:55:49;;;;;;;0.93;0.85;;;;;;;9.99;100.00;101623.44;4972633;28;20049;-85
2022/02/08 02:58:15;;;;;;;0.50;0.50;;;;;;;9.97;100.00;101622.72;4992827;28;20041;-83
2022/02/08 03:00:49;;;;;;;3.72;0.95;;;;;;;9.97;100.00;101625.41;4989065;28;20116;-84
2022/02/08 03:19:13;;;;;;;0.50;0.50;;;;;;;9.85;100.00;101603.28;4997341;28;20032;-83
2022/02/08 03:21:39;;;;;;;4.65;0.90;;;;;;;9.97;100.00;101611.97;4958915;28;20033;-83
2022/02/08 03:24:10;;;;;;;8.50;1.38;;;;;;;9.90;100.00;101594.78;4985679;28;20501;-81
2022/02/08 03:26:36;;;;;;;4.03;0.80;;;;;;;9.73;100.00;101577.63;4973176;28;20072;-82
2022/02/08 03:29:02;;;;;;;1.33;0.95;;;;;;;9.98;100.00;101619.06;4971870;28;20029;-84
2022/02/08 03:31:28;;;;;;;2.30;1.17;;;;;;;9.90;100.00;101601.00;4990139;28;20042;-85
2022/02/08 03:33:54;;;;;;;1.73;0.80;;;;;;;9.77;100.00;101579.03;5006893;28;20025;-83
2022/02/08 03:36:19;;;;;;;5.10;0.90;;;;;;;9.93;100.00;101594.50;5002131;28;20041;-82
2022/02/08 03:38:48;;;;;;;4.93;1.30;;;;;;;9.93;100.00;101599.84;5013062;28;20037;-83
2022/02/08 03:41:14;;;;;;;1.30;0.77;;;;;;;9.98;100.00;101616.38;4955931;28;20049;-86
2022/02/08 03:43:44;;;;;;;11.00;1.35;;;;;;;9.94;100.00;101606.91;4984380;28;20124;-85
2022/02/08 03:46:16;;;;;;;0.73;0.60;;;;;;;9.98;100.00;101600.25;4975728;28;20104;-84
2022/02/08 03:48:43;;;;;;;0.60;0.60;;;;;;;9.90;100.00;101601.00;4976678;28;20041;-83
2022/02/08 03:51:14;;;;;;;0.30;0.30;;;;;;;9.99;100.00;101599.25;4990623;28;20526;-84
2022/02/08 03:53:45;;;;;;;3.63;0.98;;;;;;;9.91;100.00;101580.34;4972762;28;20049;-83
2022/02/08 03:56:12;;;;;;;6.97;0.85;;;;;;;10.03;100.00;101605.16;4976328;28;20084;-83
2022/02/08 03:58:38;;;;;;;0.40;0.40;;;;;;;9.94;100.00;101587.28;4988921;28;20034;-84
2022/02/08 04:06:34;;;;;;;0.68;0.60;;;;;;;9.97;100.00;101582.44;5006588;28;20045;-83
2022/02/08 04:09:00;;;;;;;3.50;1.25;;;;;;;9.92;100.00;101576.66;4970791;28;20030;-84
2022/02/08 04:11:26;;;;;;;3.63;1.10;;;;;;;10.02;100.00;101590.88;4973223;28;20084;-83
2022/02/08 04:14:03;;;;;;;2.65;0.88;;;;;;;10.07;100.00;101595.81;4988794;28;20492;-84
2022/02/08 04:16:34;;;;;;;2.22;0.88;;;;;;;10.05;100.00;101598.63;4977360;28;20038;-83
2022/02/08 04:19:28;;;;;;;2.08;0.88;;;;;;;10.10;100.00;101595.50;4988524;28;20030;-84
2022/02/08 04:33:09;;;;;;;0.85;0.73;;;;;;;10.07;100.00;101593.97;4992498;28;20037;-84
2022/02/08 04:38:31;;;;;;;1.48;0.60;;;;;;;10.08;100.00;101597.47;4966639;28;20037;-85
2022/02/08 04:41:34;;;;;;;11.60;1.50;;;;;;;10.09;100.00;101600.03;4969810;28;20049;-82
2022/02/08 04:43:56;;;;;;;8.85;1.77;;;;;;;9.99;100.00;101582.28;4974797;28;20499;-84
2022/02/08 04:46:42;;;;;;;0.63;0.52;;;;;;;10.08;100.00;101603.72;4966386;28;20053;-85
2022/02/08 04:49:07;;;;;;;7.18;1.45;;;;;;;10.05;100.00;101593.25;4990307;28;20069;-83
2022/02/08 04:51:40;;;;;;;0.60;0.60;;;;;;;10.06;100.00;101586.06;5005065;28;20119;-84
2022/02/08 04:56:48;;;;;;;4.78;1.52;;;;;;;9.99;100.00;101596.56;4989297;28;20061;-85
2022/02/08 05:29:47;;;;;;;3.30;1.10;;;;;;;10.07;100.00;101599.34;4989950;28;20037;-84
2022/02/08 05:45:36;;;;;;;0.50;0.50;;;;;;;9.99;100.00;101587.66;4989343;28;20037;-84
2022/02/08 05:47:42;;;;;;;0.47;0.47;;;;;;;10.04;100.00;101586.19;4982596;28;20122;-84
2022/02/08 05:50:24;;;;;;;2.20;0.77;;;;;;;10.04;100.00;101586.19;4991990;28;20034;-84
2022/02/08 05:53:03;;;;;;;0.93;0.50;;;;;;;9.98;100.00;101576.06;4974787;28;20164;-84
2022/02/08 05:55:29;;;;;;;0.50;0.50;;;;;;;10.09;100.00;101600.03;4986801;28;20034;-85
2022/02/08 05:57:56;;;;;;;1.88;0.70;;;;;;;10.05;100.00;101589.72;4978849;28;20546;-86
2022/02/08 06:00:26;;;;;;;0.70;0.70;;;;;;;10.05;100.00;101587.88;4993895;28;20057;-84
2022/02/08 06:02:54;;;;;;;0.57;0.57;;;;;;;9.91;100.00;101567.75;4990929;28;20100;-83
2022/02/08 06:05:23;;;;;;;2.55;0.65;;;;;;;10.10;100.00;101593.66;4978327;28;20054;-85
2022/02/08 06:07:49;;;;;;;0.60;0.60;;;;;;;10.10;100.00;101587.44;4985175;28;20034;-84
2022/02/08 06:10:17;;;;;;;3.97;0.85;;;;;;;10.11;100.00;101587.28;4992174;28;20044;-84
2022/02/08 06:12:44;;;;;;;3.88;0.90;;;;;;;10.12;100.00;101588.13;4989152;28;20030;-84
2022/02/08 06:15:12;;;;;;;0.43;0.43;;;;;;;10.10;100.00;101585.59;4971463;28;20396;-84
2022/02/08 06:17:38;;;;;;;0.40;0.40;;;;;;;10.07;100.00;101580.53;4991587;28;20076;-86
2022/02/08 06:20:06;;;;;;;1.65;0.88;;;;;;;10.09;100.00;101593.81;4976485;28;20103;-84
2022/02/08 06:22:32;;;;;;;2.72;0.80;;;;;;;10.11;100.00;101587.28;4981829;28;20436;-84
2022/02/08 06:24:58;;;;;;;0.70;0.70;;;;;;;10.11;100.00;101579.22;4958538;28;20061;-83
2022/02/08 06:27:29;;;;;;;0.40;0.40;;;;;;;10.11;100.00;101575.72;4976066;28;21185;-84
2022/02/08 06:29:56;;;;;;;0.70;0.60;;;;;;;10.08;100.00;101582.22;5007633;28;20482;-86
2022/02/08 06:32:21;;;;;;;2.17;1.23;;;;;;;10.09;100.00;101578.53;4990120;28;20044;-84
2022/02/08 06:34:47;;;;;;;1.60;0.60;;;;;;;10.09;100.00;101575.00;4992580;28;20034;-84
2022/02/08 06:37:15;;;;;;;0.50;0.50;;;;;;;10.04;100.00;101564.72;4972273;28;20057;-85
2022/02/08 06:39:41;;;;;;;12.40;1.60;;;;;;;10.13;100.00;101568.31;4991545;28;20045;-84
2022/02/08 06:42:11;;;;;;;4.25;1.15;;;;;;;10.06;100.00;101570.78;4977399;28;20468;-84
2022/02/08 06:44:36;;;;;;;0.50;0.50;;;;;;;10.12;100.00;101572.84;4986358;28;20030;-83
2022/02/08 06:47:03;;;;;;;1.10;0.90;;;;;;;10.13;100.00;101566.50;5008305;28;20021;-85
2022/02/08 06:49:29;;;;;;;0.50;0.50;;;;;;;10.11;100.00;101570.34;5002460;28;20507;-84
2022/02/08 06:51:55;;;;;;;0.50;0.50;;;;;;;10.11;100.00;101576.53;4982650;28;20030;-84
2022/02/08 06:54:20;;;;;;;0.40;0.40;;;;;;;10.11;100.00;101581.06;4987724;28;20095;-83
2022/02/08 06:56:46;;;;;;;0.50;0.50;;;;;;;10.06;100.00;101578.00;4977871;28;20041;-84
2022/02/08 06:59:16;;;;;;;0.50;0.50;;;;;;;10.12;100.00;101591.66;4993021;28;20168;-84
2022/02/08 07:01:41;;;;;;;1.23;0.80;;;;;;;10.09;100.00;101581.22;4961780;28;20030;-84
2022/02/08 07:04:11;;;;;;;0.57;0.57;;;;;;;10.06;100.00;101581.53;4984010;28;20045;-84
2022/02/08 07:06:37;;;;;;;0.90;0.68;;;;;;;10.10;100.00;101574.84;4978694;28;20495;-84
2022/02/08 07:09:03;;;;;;;0.50;0.50;;;;;;;10.12;100.00;101586.28;4991665;28;20084;-83
2022/02/08 07:11:28;;;;;;;0.65;0.65;;;;;;;10.08;100.00;101587.59;4989050;28;20038;-84
2022/02/08 07:13:54;;;;;;;0.40;0.40;;;;;;;10.06;100.00;101586.06;4970062;28;20026;-84
2022/02/08 07:16:20;;;;;;;0.40;0.40;;;;;;;10.07;100.00;101595.81;4986901;28;20030;-84
2022/02/08 07:18:46;;;;;;;3.72;1.23;;;;;;;10.07;100.00;101607.38;4988200;28;20044;-85
2022/02/08 07:21:11;;;;;;;2.60;0.57;;;;;;;9.85;100.00;101587.19;4967940;28;20597;-83
2022/02/08 07:23:37;;;;;;;0.30;0.30;;;;;;;9.80;100.00;101610.13;5002442;28;20809;-84
2022/02/08 07:26:04;;;;;;;0.40;0.40;;;;;;;9.67;100.00;101615.84;4984864;28;20088;-83
2022/02/08 07:28:30;;;;;;;0.40;0.40;;;;;;;9.52;100.00;101612.78;4984293;28;20076;-84
2022/02/08 07:31:02;;;;;;;0.95;0.52;;;;;;;9.24;100.00;101599.34;4968701;28;20069;-82
2022/02/08 07:33:30;;;;;;;0.73;0.40;;;;;;;9.14;100.00;101641.44;4970332;28;20496;-85
2022/02/08 07:38:30;;;;;;;0.40;0.40;;;;;;;8.84;100.00;101642.50;5005094;28;20077;-84
2022/02/08 07:43:21;;;;;;;0.30;0.30;;;;;;;8.68;100.00;101650.25;4991129;28;20622;-84
2022/02/08 07:45:48;;;;;;;0.35;0.35;;;;;;;8.65;100.00;101653.22;5004801;28;20026;-83
2022/02/08 07:48:14;;;;;;;0.40;0.40;;;;;;;8.50;100.00;101636.72;4986121;28;20045;-85
2022/02/08 07:50:41;;;;;;;0.30;0.30;;;;;;;8.55;100.00;101650.56;4987345;28;20033;-85
2022/02/08 07:53:09;;;;;;;0.40;0.40;;;;;;;8.46;100.00;101638.81;4990076;28;20105;-85
2022/02/08 07:55:35;;;;;;;0.38;0.38;;;;;;;8.55;100.00;101659.44;4969984;28;21841;-85
2022/02/08 07:58:01;;;;;;;0.40;0.40;;;;;;;8.46;100.00;101652.22;4975961;28;20038;-85
2022/02/08 08:00:26;;;;;;;0.40;0.40;;;;;;;8.54;100.00;101671.13;4977195;28;20087;-85
2022/02/08 08:02:53;;;;;;;0.40;0.40;;;;;;;8.52;100.00;101654.38;5010210;28;20038;-84
2022/02/08 08:05:19;;;;;;;0.40;0.40;;;;;;;8.52;100.00;101658.84;4985987;28;20121;-84
2022/02/08 08:07:45;;;;;;;0.40;0.40;;;;;;;8.49;100.00;101657.31;4957086;28;20223;-85
2022/02/08 08:10:17;;;;;;;0.40;0.40;;;;;;;8.46;100.00;101652.22;4975060;28;20050;-84
2022/02/08 08:12:48;;;;;;;0.40;0.40;;;;;;;8.47;100.00;101650.41;4990373;28;20041;-85
2022/02/08 08:18:00;;;;;;;0.40;0.40;;;;;;;8.29;100.00;101632.31;4983163;28;20041;-85
2022/02/08 08:20:26;;;;;;;0.40;0.40;;;;;;;8.43;100.00;101657.03;4966816;28;20034;-84
2022/02/08 08:22:52;;;;;;;0.40;0.40;;;;;;;8.40;100.00;101660.00;5002257;28;20040;-84
2022/02/08 08:25:17;;;;;;;0.40;0.40;;;;;;;8.45;100.00;101660.44;4981878;28;20033;-83
2022/02/08 08:27:44;;;;;;;0.40;0.40;;;;;;;8.46;100.00;101665.63;4975809;28;20556;-84
2022/02/08 08:30:10;;;;;;;0.40;0.40;;;;;;;8.46;100.00;101668.31;4975110;28;20044;-85
2022/02/08 08:32:39;;;;;;;0.40;0.40;;;;;;;8.46;100.00;101670.16;4965731;28;20037;-84
2022/02/08 08:35:07;;;;;;;0.40;0.40;;;;;;;8.44;100.00;101664.94;4976276;28;20033;-85
2022/02/08 08:37:37;;;;;;;0.40;0.40;;;;;;;8.47;100.00;101664.66;4961344;28;20057;-85
2022/02/08 08:40:13;;;;;;;0.40;0.40;;;;;;;8.32;100.00;101642.75;4989583;28;20049;-85
2022/02/08 08:42:54;;;;;;;0.40;0.40;;;;;;;8.50;100.00;101672.41;4995747;28;20037;-84
2022/02/08 08:50:53;;;;;;;0.40;0.40;;;;;;;8.46;100.00;101667.47;4993837;28;20041;-86
2022/02/08 08:53:20;;;;;;;0.40;0.40;;;;;;;8.56;100.00;101679.88;4978030;28;20103;-84
2022/02/08 08:55:46;;;;;;;0.45;0.45;;;;;;;8.49;100.00;101675.22;5004229;28;20022;-86
2022/02/08 08:58:11;;;;;;;0.40;0.40;;;;;;;8.55;100.00;101690.78;4985652;28;20038;-84
2022/02/08 09:00:40;;;;;;;0.40;0.40;;;;;;;8.56;100.00;101685.25;4996459;28;20475;-85
2022/02/08 09:03:06;;;;;;;0.40;0.40;;;;;;;8.50;100.00;101656.34;4977299;28;20475;-84
2022/02/08 09:05:32;;;;;;;0.40;0.40;;;;;;;8.66;100.00;101676.38;5006262;28;20036;-84
2022/02/08 09:07:57;;;;;;;0.40;0.40;;;;;;;8.77;100.00;101687.78;5000911;28;20030;-84
2022/02/08 09:10:29;;;;;;;0.47;0.47;;;;;;;8.76;100.00;101682.59;5007718;28;20472;-84
2022/02/08 09:15:43;;;;;;;0.40;0.40;;;;;;;8.71;100.00;101683.00;4977835;28;20049;-85
2022/02/08 09:28:58;;;;;;;0.40;0.40;;;;;;;8.95;100.00;101698.66;4987218;28;20030;-85
2022/02/08 09:31:24;;;;;;;0.40;0.40;;;;;;;8.93;100.00;101681.03;4976332;28;20088;-85
2022/02/08 09:33:50;;;;;;;0.40;0.40;;;;;;;8.90;100.00;101681.31;4977129;28;20042;-83
2022/02/08 09:36:24;;;;;;;0.40;0.40;;;;;;;9.03;100.00;101697.97;4991228;28;20025;-84
2022/02/08 09:38:53;;;;;;;0.40;0.40;;;;;;;8.97;100.00;101682.41;4987693;28;20088;-84
2022/02/08 09:41:21;;;;;;;0.50;0.50;;;;;;;9.12;100.00;101707.81;4967676;28;20522;-85
2022/02/08 09:43:47;;;;;;;0.50;0.50;;;;;;;9.18;100.00;101701.91;4975465;28;20092;-84
2022/02/08 09:46:16;;;;;;;0.40;0.40;;;;;;;9.25;100.00;101707.53;4979083;28;20033;-86
2022/02/08 09:48:46;;;;;;;0.40;0.40;;;;;;;9.30;100.00;101710.63;4985112;28;20502;-84
2022/02/08 09:51:12;;;;;;;0.47;0.47;;;;;;;9.39;100.00;101695.47;4958204;28;20113;-84
2022/02/08 09:53:43;;;;;;;0.50;0.50;;;;;;;9.46;100.00;101696.59;4976312;28;20030;-85
2022/02/08 09:56:13;;;;;;;0.40;0.40;;;;;;;9.34;100.00;101662.84;4959425;28;20033;-85
2022/02/08 09:58:39;;;;;;;0.40;0.40;;;;;;;9.59;100.00;101698.97;4989601;28;20056;-84
2022/02/08 10:01:07;;;;;;;0.40;0.40;;;;;;;9.63;100.00;101690.47;4958830;28;20044;-84
2022/02/08 10:03:33;;;;;;;0.50;0.50;;;;;;;9.72;100.00;101710.22;4977069;28;20037;-85
2022/02/08 10:05:59;;;;;;;0.40;0.40;;;;;;;9.71;100.00;101700.47;4990015;28;20088;-85
2022/02/08 10:08:25;;;;;;;0.40;0.40;;;;;;;9.75;100.00;101701.03;4995363;28;20047;-84
2022/02/08 10:10:51;;;;;;;0.40;0.40;;;;;;;9.62;100.00;101682.56;4968245;28;20069;-85
2022/02/08 10:22:09;;;;;;;0.50;0.50;;;;;;;9.66;100.00;101636.47;4945446;29;20469;-89
2022/02/08 10:24:37;;;;;;;0.52;0.52;;;;;;;9.79;100.00;101673.75;4921731;28;20035;-90
2022/02/08 10:27:19;;;;;;;0.50;0.50;;;;;;;9.64;100.00;101665.31;4962533;28;20042;-90
2022/02/08 10:40:22;;;;;;;0.50;0.50;;;;;;;9.74;100.00;101681.41;4996092;28;20030;-90
2022/02/08 10:42:55;;;;;;;0.50;0.50;;;;;;;9.85;100.00;101697.31;5001043;28;20124;-89
2022/02/08 10:45:21;;;;;;;0.50;0.50;;;;;;;9.91;100.00;101703.94;5021554;28;20075;-89
2022/02/08 10:47:56;;;;;;;0.57;0.57;;;;;;;10.01;100.00;101699.34;5009318;28;20064;-90
2022/02/08 10:50:22;;;;;;;0.50;0.50;;;;;;;10.05;100.00;101692.69;4997717;28;20120;-90
2022/02/08 10:52:48;;;;;;;0.40;0.40;;;;;;;10.07;100.00;101698.75;4964475;28;20111;-90
2022/02/08 11:00:35;;;;;;;0.40;0.40;;;;;;;9.93;100.00;101685.84;4985108;28;20492;-89
2022/02/08 11:03:05;;;;;;;0.40;0.40;;;;;;;9.85;100.00;101686.56;4994433;28;20458;-90
2022/02/08 11:05:46;;;;;;;0.50;0.50;;;;;;;9.97;100.00;101699.81;4980386;28;20048;-90
2022/02/08 11:11:38;;;;;;;0.40;0.40;;;;;;;10.07;100.00;101681.78;4986303;28;20073;-90
2022/02/08 11:23:08;;;;;;;0.50;0.50;;;;;;;10.23;100.00;101684.66;4987693;28;20036;-84
2022/02/08 11:25:22;;;;;;;0.50;0.50;;;;;;;10.07;100.00;101671.88;4987363;28;20480;-80
2022/02/08 11:27:54;;;;;;;0.40;0.40;;;;;;;10.05;100.00;101667.66;4973065;28;20040;-85
2022/02/08 11:30:57;;;;;;;0.43;0.43;;;;;;;10.18;100.00;101675.34;4960020;28;20088;-86
2022/02/08 11:39:47;;;;;;;0.40;0.40;;;;;;;10.43;100.00;101676.53;4982944;28;20053;-84
2022/02/08 11:47:48;;;;;;;0.40;0.40;;;;;;;10.26;100.00;101653.94;4982824;28;20038;-81
2022/02/08 11:50:48;;;;;;;0.40;0.40;;;;;;;10.24;100.00;101669.38;4985379;28;20026;-79
2022/02/08 11:53:26;;;;;;;0.40;0.40;;;;;;;10.19;100.00;101658.22;4995428;28;20571;-84
2022/02/08 11:58:58;;;;;;;0.60;0.60;;;;;;;10.16;100.00;101643.28;5008863;28;20562;-82
2022/02/08 12:09:43;;;;;;;0.50;0.50;;;;;;;10.28;100.00;101657.38;4982028;28;20042;-82
2022/02/08 12:32:36;;;;;;;0.47;0.47;;;;;;;10.83;100.00;101651.00;4993851;28;20032;-84
2022/02/08 12:35:23;;;;;;;1.98;0.60;;;;;;;10.92;100.00;101637.44;4993498;28;20084;-83
2022/02/08 13:02:51;;;;;;;0.98;0.98;;;;;;;11.37;100.00;101614.84;4974061;28;20045;-84
2022/02/08 13:05:52;;;;;;;0.50;0.50;;;;;;;11.33;100.00;101610.81;4960341;28;20042;-85
2022/02/08 13:32:09;;;;;;;0.40;0.40;;;;;;;10.99;100.00;101573.09;4990913;28;20044;-84
2022/02/08 14:08:18;;;;;;;0.47;0.47;;;;;;;10.89;100.00;101559.72;4972407;28;20096;-83
2022/02/08 14:18:50;;;;;;;0.40;0.40;;;;;;;10.49;100.00;101526.16;4986554;28;20041;-83
2022/02/08 15:06:50;;;;;;;0.40;0.40;;;;;;;10.10;100.00;101494.22;4972723;28;20038;-83
2022/02/08 15:09:21;;;;;;;0.50;0.50;;;;;;;10.04;100.00;101480.56;5007958;28;20592;-84
2022/02/08 15:12:04;;;;;;;0.40;0.40;;;;;;;9.88;100.00;101483.97;4988978;28;20088;-84
2022/02/08 15:14:38;;;;;;;0.40;0.40;;;;;;;9.90;100.00;101480.13;5000530;28;20420;-84
2022/02/08 15:17:08;;;;;;;0.50;0.50;;;;;;;9.96;100.00;101486.72;4975161;28;20033;-86
2022/02/08 15:19:34;;;;;;;0.60;0.60;;;;;;;9.90;100.00;101490.03;4976395;28;20050;-83
2022/02/08 15:22:05;;;;;;;0.50;0.50;;;;;;;9.85;100.00;101487.78;4976280;28;20048;-84
2022/02/08 15:24:33;;;;;;;0.40;0.40;;;;;;;9.80;100.00;101483.88;4982385;28;20406;-82
2022/02/08 15:26:59;;;;;;;0.43;0.43;;;;;;;9.80;100.00;101486.56;4978519;28;20069;-84
2022/02/08 15:29:27;;;;;;;1.00;0.50;;;;;;;9.79;100.00;101475.00;4972267;28;20084;-83
2022/02/08 15:31:55;;;;;;;0.40;0.40;;;;;;;9.82;100.00;101484.59;4986946;28;20038;-83
2022/02/08 15:34:27;;;;;;;0.50;0.50;;;;;;;9.76;100.00;101485.16;4989698;28;20046;-84
2022/02/08 15:36:55;;;;;;;0.45;0.45;;;;;;;9.73;100.00;101496.22;4987541;28;20061;-85
2022/02/08 15:39:21;;;;;;;0.40;0.40;;;;;;;9.72;100.00;101490.00;4990080;28;20133;-82
2022/02/08 15:41:47;;;;;;;0.63;0.63;;;;;;;9.69;100.00;101483.09;5009400;28;20034;-84
2022/02/08 15:44:18;;;;;;;0.60;0.60;;;;;;;9.61;100.00;101476.81;4994567;28;20503;-84
2022/02/08 15:46:45;;;;;;;0.43;0.43;;;;;;;9.60;100.00;101486.69;4977060;28;20038;-83
2022/02/08 15:49:17;;;;;;;0.70;0.70;;;;;;;9.64;100.00;101492.63;4972640;28;20034;-86
2022/02/08 15:51:55;;;;;;;0.50;0.50;;;;;;;9.60;100.00;101494.75;4989919;28;20036;-83
2022/02/08 15:54:38;;;;;;;0.40;0.40;;;;;;;9.58;100.00;101490.50;4979616;28;20129;-85
2022/02/08 16:07:57;;;;;;;0.52;0.52;;;;;;;9.36;100.00;101481.06;4986190;28;20125;-83
2022/02/08 16:10:45;;;;;;;0.50;0.50;;;;;;;9.37;100.00;101486.28;5007027;28;20060;-86
2022/02/08 16:18:34;;;;;;;0.40;0.40;;;;;;;9.22;100.00;101477.88;4988011;28;20045;-84
2022/02/08 16:33:08;;;;;;;0.50;0.50;;;;;;;8.69;100.00;101480.38;4992955;28;20030;-85
2022/02/08 16:53:36;;;;;;;0.40;0.40;;;;;;;8.18;100.00;101462.78;5007913;28;20038;-83
2022/02/08 16:58:52;;;;;;;0.40;0.40;;;;;;;8.15;100.00;101472.00;4985227;28;20180;-84
2022/02/08 17:01:22;;;;;;;0.40;0.40;;;;;;;8.09;100.00;101467.19;4980036;28;20479;-84
2022/02/08 17:03:51;;;;;;;0.40;0.40;;;;;;;8.07;100.00;101472.69;4989610;28;20038;-84
2022/02/08 17:06:20;;;;;;;0.40;0.40;;;;;;;8.07;100.00;101472.69;4978007;28;20049;-85
2022/02/08 17:09:18;;;;;;;0.50;0.50;;;;;;;8.05;100.00;101466.63;4987581;28;20042;-84
2022/02/08 17:11:47;;;;;;;0.40;0.40;;;;;;;8.04;100.00;101464.91;4986056;28;20045;-85
2022/02/08 17:14:47;;;;;;;0.50;0.50;;;;;;;8.03;100.00;101473.13;4984784;28;20033;-83
2022/02/08 17:49:41;;;;;;;0.43;0.43;;;;;;;7.55;100.00;101456.03;4984025;28;20037;-84
2022/02/08 17:52:07;;;;;;;0.50;0.50;;;;;;;7.46;100.00;101454.19;4978244;28;20049;-84
2022/02/08 17:54:37;;;;;;;0.40;0.40;;;;;;;7.58;100.00;101469.16;4958605;28;20096;-84
2022/02/08 17:57:03;;;;;;;0.50;0.50;;;;;;;7.61;100.00;101479.56;4994506;28;20033;-83
2022/02/08 17:59:29;;;;;;;0.40;0.40;;;;;;;7.61;100.00;101484.09;4977473;28;20034;-86
2022/02/08 18:01:55;;;;;;;0.40;0.40;;;;;;;7.61;100.00;101479.56;4984738;28;20406;-83
2022/02/08 18:04:22;;;;;;;0.50;0.50;;;;;;;7.62;100.00;101483.09;4977439;28;20061;-84
2022/02/08 18:06:48;;;;;;;66.13;42.90;;;;;;;7.64;100.00;101499.84;5007792;28;20038;-82
2022/02/08 18:09:17;;;;;;;11.38;8.35;;;;;;;7.59;100.00;101507.44;4966469;28;20104;-84
2022/02/08 18:11:43;;;;;;;7.50;5.97;;;;;;;7.48;100.00;101506.59;5004847;28;20038;-85
2022/02/08 18:14:12;;;;;;;4.82;4.05;;;;;;;7.38;100.00;101511.09;4980745;28;20112;-85
2022/02/08 18:16:38;;;;;;;5.65;3.95;;;;;;;7.32;100.00;101516.13;5010482;28;20033;-83
2022/02/08 18:19:15;;;;;;;2.03;1.55;;;;;;;7.23;100.00;101518.63;5001945;28;20758;-83
2022/02/08 18:21:55;;;;;;;7.53;5.18;;;;;;;7.21;100.00;101525.94;4974734;28;20120;-84
2022/02/08 18:24:48;;;;;;;6.32;5.68;;;;;;;7.18;100.00;101531.56;4992255;28;20062;-86
2022/02/08 19:21:38;;;;;;;0.45;0.45;;;;;;;6.60;100.00;101508.06;4966243;28;20050;-85